Terminal Aerodrome Forecast
Issued by NWS

Home | Current Version | Previous Version | Text Only | Print | Product List | Glossary On
Versions: 1 2 3 4 5 6 7 8 9 10 11 12 13 14 15 16 17 18 19
000
FTUS44 KLZK 271700 RRA
TAFADF
TAF
KADF 271749Z 2718/2818 35009KT 4SM -DZ BR SCT002 BKN007
      TEMPO 2718/2720 2SM -RA BR BKN004
     FM272200 35005KT 5SM -RA BR BKN012
     FM280300 01004KT 4SM BR BKN008
     FM281000 36004KT P6SM SCT008 OVC015=

USA.gov is the U.S. government's official web portal to all federal, state and local government web resources and services.